Beauregard Regional Airport
KDRI : now visible

Airfield :











YOU CAN JOIN US ON...

 
LOGIN :

Register | Disclaimer

   EN    FR    IT 

 









Legend :    VFR   Marginal VFR   IFR   Intensive IFR   Very Intensive IFR
Visi :
Ceiling :
>= 8 km
>= 3000ft
5 to 8 km
1000 to 3000 ft
1500m to 5 km
500 to 1000 ft
800 to 1500m
200 to 500 ft
< 800m
< 200 ft
Symbols :   Thunderstorms  Fog  Heavy snow  Heavy precipitations  Wind > 20 kt






- Airport Elevation : 202 ft


KDRI - Beauregard Regional

CURRENT METAR :
  • 280815Z AUTO 04004KT 7SM OVC004 18/17 A2989 RMK AO2 LTG DSNT N T01760170

EXPIRED METARs :
  • 280755Z AUTO 04004KT 5SM TSRA OVC006 18/17 A2989 RMK AO2 LTG DSNT N AND W P0001 T01760170
  • 280735Z AUTO 03004KT 7SM OVC006 18/17 A2989 RMK AO2 LTG DSNT N P0001 T01770170
  • 280715Z AUTO 03003KT 7SM OVC006 18/17 A2990 RMK AO2 P0001 T01760170
  • 280655Z AUTO 03004KT 7SM VCTSDZ OVC006 18/17 A2991 RMK AO2 T01780170
  • 280635Z AUTO 04005KT 7SM -RA OVC008 18/17 A2991 RMK AO2 T01800170
  • 280615Z AUTO 02006KT 10SM RA OVC008 18/17 A2992 RMK AO2 T01820168
  • 280555Z AUTO 02006KT 10SM RA OVC008 19/17 A2994 RMK AO2 T01860166 10221 20186 402800163
  • 280535Z AUTO 03006KT 10SM OVC010 19/17 A2994 RMK AO2 T01900168

TAF N/A
KZHU FIR / North America



MET'MAP, your aeronautical weather chart ! - Copyright ORBIFLY December 2007 - Disclaimer

ORBIFLY MET'MAP TEAM :

Programming & Development : Alexandra Zaïnal
Concept & original design : Baudouin d'Aumeries
Assistance for programming : Marc-Olivier Méhu
Technical & hardware support : Manuel Goepfert

Contact : metmap@orbifly.com




SOURCES & CREDITS :

   NOAA       Earth
Advisory